createdAt,value
2018-05-13T00:01:34.754Z,20.33
2018-05-13T00:04:02.255Z,18.73
2018-05-13T00:06:29.757Z,19.50
2018-05-13T00:08:57.257Z,20.40
2018-05-13T00:11:24.777Z,19.77
2018-05-13T00:13:52.291Z,20.27
2018-05-13T00:16:20.085Z,20.07
2018-05-13T00:18:47.596Z,21.50
2018-05-13T00:21:15.097Z,22.07
2018-05-13T00:23:42.736Z,20.77
2018-05-13T00:26:10.250Z,21.10
2018-05-13T00:28:37.757Z,21.07
2018-05-13T00:31:05.442Z,20.97
2018-05-13T00:33:32.951Z,20.27
2018-05-13T00:36:00.663Z,20.47
2018-05-13T00:38:28.171Z,20.83
2018-05-13T00:40:55.680Z,21.50
2018-05-13T00:43:23.338Z,20.50
2018-05-13T00:45:50.850Z,20.60
2018-05-13T00:48:18.601Z,23.70
2018-05-13T00:50:46.160Z,21.03
2018-05-13T00:53:13.811Z,21.30
2018-05-13T00:55:41.416Z,20.90
2018-05-13T00:58:09.656Z,21.63
2018-05-13T01:00:37.372Z,22.70
2018-05-13T01:03:05.134Z,21.00
2018-05-13T01:05:32.657Z,21.60
2018-05-13T01:08:00.358Z,21.37
2018-05-13T01:10:28.119Z,20.10
2018-05-13T01:12:56.002Z,20.60
2018-05-13T01:15:23.622Z,21.50
2018-05-13T01:17:51.142Z,21.63
2018-05-13T01:20:18.871Z,22.00
2018-05-13T01:22:46.378Z,22.00
2018-05-13T01:25:14.095Z,22.27
2018-05-13T01:27:41.905Z,21.83
2018-05-13T01:30:09.614Z,20.50
2018-05-13T01:32:37.126Z,21.80
2018-05-13T01:35:04.834Z,22.37
2018-05-13T01:37:32.338Z,22.10
2018-05-13T01:39:59.853Z,21.10
2018-05-13T01:42:27.388Z,22.27
2018-05-13T01:44:54.889Z,19.63
2018-05-13T01:47:22.423Z,19.60
2018-05-13T01:49:50.248Z,19.60
2018-05-13T01:52:17.954Z,21.43
2018-05-13T01:54:45.457Z,21.83
2018-05-13T01:57:13.081Z,21.77
2018-05-13T01:59:40.605Z,19.90
2018-05-13T02:02:08.102Z,21.07
2018-05-13T02:04:35.618Z,20.47
2018-05-13T02:07:03.302Z,22.00
2018-05-13T02:09:30.825Z,20.70
2018-05-13T02:11:58.521Z,21.20
2018-05-13T02:14:26.288Z,20.33
2018-05-13T02:16:54.057Z,20.23
2018-05-13T02:19:21.916Z,20.53
2018-05-13T02:21:49.590Z,20.37
2018-05-13T02:24:17.374Z,20.40
2018-05-13T02:26:45.122Z,21.83
2018-05-13T02:29:12.877Z,19.77
2018-05-13T02:31:40.387Z,20.43
2018-05-13T02:34:08.099Z,20.33
2018-05-13T02:36:35.870Z,21.53
2018-05-13T02:39:03.393Z,22.70
2018-05-13T02:41:30.923Z,20.77
2018-05-13T02:43:59.204Z,20.70
2018-05-13T02:46:26.884Z,21.90
2018-05-13T02:48:54.678Z,19.57
2018-05-13T02:51:22.955Z,20.47
2018-05-13T02:53:51.404Z,20.40
2018-05-13T02:56:19.542Z,19.33
2018-05-13T02:58:47.270Z,20.50
2018-05-13T03:01:14.866Z,19.80
2018-05-13T03:03:43.158Z,21.20
2018-05-13T03:06:10.867Z,20.80
2018-05-13T03:08:38.391Z,19.37
2018-05-13T03:11:05.916Z,20.03
2018-05-13T03:13:34.204Z,20.20
2018-05-13T03:16:01.925Z,22.00
2018-05-13T03:18:29.661Z,20.47
2018-05-13T03:20:57.169Z,21.53
2018-05-13T03:23:24.690Z,20.37
2018-05-13T03:25:52.230Z,23.00
2018-05-13T03:28:19.770Z,20.33
2018-05-13T03:30:47.455Z,20.17
2018-05-13T03:33:15.007Z,21.07
2018-05-13T03:35:42.517Z,21.60
2018-05-13T03:38:10.231Z,21.97
2018-05-13T03:40:38.152Z,21.63
2018-05-13T03:43:05.782Z,20.47
2018-05-13T03:45:33.543Z,20.43
2018-05-13T03:48:01.306Z,21.53
2018-05-13T03:50:29.222Z,19.90
2018-05-13T03:52:57.482Z,21.90
2018-05-13T03:55:25.396Z,19.70
2018-05-13T03:57:52.979Z,19.83
2018-05-13T04:00:20.769Z,20.50
2018-05-13T04:02:48.509Z,19.37
2018-05-13T04:05:16.270Z,22.13
2018-05-13T04:08:16.929Z,20.10
2018-05-13T04:10:56.212Z,20.07
2018-05-13T04:13:36.694Z,20.70
2018-05-13T04:16:04.285Z,20.67
2018-05-13T04:18:31.798Z,21.17
2018-05-13T04:20:59.374Z,20.83
2018-05-13T04:23:27.134Z,20.50
2018-05-13T04:25:54.904Z,22.17
2018-05-13T04:28:22.635Z,22.27
2018-05-13T04:30:50.256Z,21.97
2018-05-13T04:33:17.791Z,21.63
2018-05-13T04:35:45.365Z,20.10
2018-05-13T04:38:13.074Z,22.30
2018-05-13T04:40:40.588Z,21.23
2018-05-13T04:43:08.106Z,19.03
2018-05-13T04:45:35.647Z,21.60
2018-05-13T04:48:03.238Z,20.10
2018-05-13T04:50:30.773Z,20.80
2018-05-13T04:52:58.417Z,21.77
2018-05-13T04:55:26.218Z,21.63
2018-05-13T04:57:53.993Z,21.93
2018-05-13T05:00:21.517Z,21.47
2018-05-13T05:02:49.049Z,21.17
2018-05-13T05:05:16.665Z,21.77
2018-05-13T05:07:44.436Z,21.13
2018-05-13T05:10:11.946Z,21.97
2018-05-13T05:12:39.451Z,21.60
2018-05-13T05:15:07.067Z,22.17
2018-05-13T05:17:34.574Z,22.00
2018-05-13T05:20:02.090Z,20.83
2018-05-13T05:22:29.783Z,21.03
2018-05-13T05:24:57.415Z,22.30
2018-05-13T05:27:24.986Z,22.90
2018-05-13T05:29:52.609Z,21.40
2018-05-13T05:32:20.877Z,21.10
2018-05-13T05:34:48.389Z,19.93
2018-05-13T05:37:16.051Z,20.30
2018-05-13T05:39:43.852Z,18.73
2018-05-13T05:42:11.545Z,23.57
2018-05-13T05:44:39.061Z,18.77
2018-05-13T05:47:06.802Z,20.20
2018-05-13T05:49:34.575Z,19.93
2018-05-13T05:52:02.507Z,20.97
2018-05-13T05:54:30.011Z,20.93
2018-05-13T05:56:57.558Z,19.90
2018-05-13T05:59:25.071Z,21.97
2018-05-13T06:01:52.762Z,19.67
2018-05-13T06:04:20.542Z,20.40
2018-05-13T06:06:48.087Z,21.17
2018-05-13T06:09:15.598Z,21.07
2018-05-13T06:11:43.122Z,19.77
2018-05-13T06:14:10.626Z,19.47
2018-05-13T06:16:38.257Z,19.20
2018-05-13T06:19:06.536Z,20.70
2018-05-13T06:21:34.275Z,20.67
2018-05-13T06:24:01.787Z,19.63
2018-05-13T06:26:29.301Z,21.30
2018-05-13T06:28:56.938Z,21.70
2018-05-13T06:31:24.701Z,22.47
2018-05-13T06:33:52.215Z,19.97
2018-05-13T06:36:19.917Z,22.00
2018-05-13T06:38:47.686Z,18.03
2018-05-13T06:41:15.201Z,20.37
2018-05-13T06:43:42.713Z,19.33
2018-05-13T06:46:10.235Z,19.83
2018-05-13T06:48:37.749Z,20.53
2018-05-13T06:51:05.373Z,21.90
2018-05-13T06:53:32.773Z,19.40
2018-05-13T06:56:00.289Z,21.90
2018-05-13T06:58:27.798Z,20.17
2018-05-13T07:00:55.410Z,18.87
2018-05-13T07:03:23.166Z,14.27
2018-05-13T07:05:50.678Z,19.73
2018-05-13T07:08:18.399Z,19.53
2018-05-13T07:10:45.922Z,20.23
2018-05-13T07:13:13.629Z,21.57
2018-05-13T07:15:41.145Z,19.03
2018-05-13T07:18:08.806Z,17.40
2018-05-13T07:20:36.318Z,21.00
2018-05-13T07:23:04.066Z,20.73
2018-05-13T07:25:31.586Z,21.37
2018-05-13T07:27:59.253Z,20.57
2018-05-13T07:30:26.762Z,17.40
2018-05-13T07:32:54.521Z,18.30
2018-05-13T07:35:22.030Z,20.73
2018-05-13T07:37:49.547Z,20.77
2018-05-13T07:40:17.826Z,20.70
2018-05-13T07:42:45.528Z,20.47
2018-05-13T07:45:13.319Z,20.47
2018-05-13T07:47:41.049Z,20.53
2018-05-13T07:50:09.471Z,22.20
2018-05-13T07:52:36.993Z,23.33
2018-05-13T07:55:04.586Z,22.60
2018-05-13T07:57:32.138Z,21.73
2018-05-13T07:59:59.661Z,22.80
2018-05-13T08:02:27.393Z,21.87
2018-05-13T08:04:54.902Z,23.10
2018-05-13T08:07:22.539Z,22.10
2018-05-13T08:09:50.341Z,22.07
2018-05-13T08:12:17.867Z,22.30
2018-05-13T08:14:45.380Z,22.03
2018-05-13T08:17:13.662Z,20.10
2018-05-13T08:19:41.387Z,20.70
2018-05-13T08:22:08.916Z,18.60
2018-05-13T08:24:36.426Z,19.90
2018-05-13T08:27:03.970Z,20.50
2018-05-13T08:29:31.494Z,20.73
2018-05-13T08:31:59.005Z,20.57
2018-05-13T08:34:26.742Z,20.03
2018-05-13T08:36:54.266Z,19.57
2018-05-13T08:39:21.966Z,18.83
2018-05-13T08:41:49.531Z,19.90
2018-05-13T08:44:17.038Z,18.77
2018-05-13T08:46:44.638Z,19.00
2018-05-13T08:49:12.152Z,18.30
2018-05-13T08:51:39.665Z,19.10
2018-05-13T08:54:07.397Z,19.23
2018-05-13T08:56:34.837Z,18.70
2018-05-13T08:59:02.347Z,20.17
2018-05-13T09:01:29.962Z,19.93
2018-05-13T09:03:57.488Z,19.73
2018-05-13T09:06:25.098Z,17.37
2018-05-13T09:08:52.641Z,17.13
2018-05-13T09:11:20.430Z,16.37
2018-05-13T09:13:47.948Z,16.23
2018-05-13T09:16:15.650Z,16.13
2018-05-13T09:18:43.163Z,16.13
2018-05-13T09:21:10.829Z,14.00
2018-05-13T09:23:38.337Z,15.90
2018-05-13T09:26:06.818Z,16.33
2018-05-13T09:28:34.334Z,14.93
2018-05-13T09:31:01.852Z,13.33
2018-05-13T09:33:30.134Z,14.97
2018-05-13T09:35:59.271Z,14.53
2018-05-13T09:38:26.782Z,13.70
2018-05-13T09:40:54.433Z,14.10
2018-05-13T09:43:21.945Z,14.77
2018-05-13T09:45:49.753Z,14.60
2018-05-13T09:48:17.506Z,13.60
2018-05-13T09:50:45.024Z,14.43
2018-05-13T09:53:12.557Z,16.30
2018-05-13T09:55:40.838Z,13.37
2018-05-13T09:58:08.506Z,14.43
2018-05-13T10:00:37.832Z,14.20
2018-05-13T10:03:05.411Z,15.53
2018-05-13T10:05:33.033Z,12.90
2018-05-13T10:08:00.553Z,13.73
2018-05-13T10:10:28.060Z,14.17
2018-05-13T10:12:55.583Z,13.60
2018-05-13T10:15:23.865Z,13.33
2018-05-13T10:17:51.562Z,13.87
2018-05-13T10:20:19.070Z,12.93
2018-05-13T10:22:46.786Z,13.07
2018-05-13T10:25:14.570Z,12.17
2018-05-13T10:27:42.327Z,12.70
2018-05-13T10:30:09.859Z,13.43
2018-05-13T10:32:37.558Z,11.87
2018-05-13T10:35:06.850Z,13.00
2018-05-13T10:37:34.616Z,13.83
2018-05-13T10:40:03.271Z,12.13
2018-05-13T10:42:31.082Z,12.50
2018-05-13T10:44:58.592Z,10.60
2018-05-13T10:47:26.243Z,12.50
2018-05-13T10:49:54.982Z,11.63
2018-05-13T10:52:22.499Z,12.00
2018-05-13T10:54:50.192Z,11.00
2018-05-13T10:57:17.698Z,10.80
2018-05-13T10:59:45.236Z,11.87
2018-05-13T11:02:12.866Z,11.00
2018-05-13T11:04:40.425Z,10.80
2018-05-13T11:07:08.674Z,12.07
2018-05-13T11:09:36.466Z,11.30
2018-05-13T11:12:04.098Z,13.13
2018-05-13T11:14:31.683Z,11.33
2018-05-13T11:16:59.196Z,10.43
2018-05-13T11:19:26.878Z,11.93
2018-05-13T11:21:54.665Z,11.43
2018-05-13T11:24:23.032Z,11.20
2018-05-13T11:26:51.006Z,11.77
2018-05-13T11:29:18.434Z,11.90
2018-05-13T11:31:46.028Z,12.50
2018-05-13T11:34:13.790Z,12.03
2018-05-13T11:36:41.587Z,11.03
2018-05-13T11:39:09.341Z,12.87
2018-05-13T11:41:36.894Z,11.20
2018-05-13T11:44:04.415Z,13.30
2018-05-13T11:46:31.997Z,11.87
2018-05-13T11:48:59.766Z,11.53
2018-05-13T11:51:27.529Z,13.10
2018-05-13T11:53:55.046Z,12.10
2018-05-13T11:56:22.725Z,12.40
2018-05-13T11:58:50.511Z,12.23
2018-05-13T12:01:18.143Z,11.80
2018-05-13T12:03:45.728Z,13.53
2018-05-13T12:06:13.235Z,13.10
2018-05-13T12:08:40.738Z,12.97
2018-05-13T12:11:08.410Z,12.33
2018-05-13T12:13:35.986Z,11.73
2018-05-13T12:16:03.454Z,11.50
2018-05-13T12:18:31.082Z,12.33
2018-05-13T12:20:58.878Z,12.60
2018-05-13T12:23:26.350Z,12.63
2018-05-13T12:25:53.989Z,12.17
2018-05-13T12:28:22.258Z,12.30
2018-05-13T12:30:49.902Z,12.03
2018-05-13T12:33:17.421Z,12.00
2018-05-13T12:35:44.947Z,10.73
2018-05-13T12:38:12.459Z,12.00
2018-05-13T12:40:39.988Z,13.00
2018-05-13T12:43:07.816Z,11.57
2018-05-13T12:45:35.326Z,11.10
2018-05-13T12:48:03.022Z,11.83
2018-05-13T12:50:30.650Z,11.80
2018-05-13T12:52:58.142Z,10.80
2018-05-13T12:55:25.659Z,11.50
2018-05-13T12:57:53.174Z,15.30
2018-05-13T13:00:20.686Z,15.00
2018-05-13T13:02:48.330Z,14.60
2018-05-13T13:05:15.850Z,16.13
2018-05-13T13:07:43.462Z,17.13
2018-05-13T13:10:11.048Z,16.83
2018-05-13T13:12:38.823Z,18.37
2018-05-13T13:15:06.361Z,18.43
2018-05-13T13:17:33.897Z,18.67
2018-05-13T13:20:01.522Z,18.60
2018-05-13T13:22:29.222Z,15.30
2018-05-13T13:24:56.749Z,15.27
2018-05-13T13:27:24.249Z,17.10
2018-05-13T13:29:51.767Z,17.97
2018-05-13T13:32:20.316Z,18.37
2018-05-13T13:34:47.834Z,17.13
2018-05-13T13:37:15.522Z,17.50
2018-05-13T13:39:43.042Z,18.23
2018-05-13T13:42:10.998Z,17.27
2018-05-13T13:44:38.515Z,16.63
2018-05-13T13:47:06.278Z,16.23
2018-05-13T13:49:33.789Z,15.67
2018-05-13T13:52:01.291Z,16.13
2018-05-13T13:54:28.942Z,17.00
2018-05-13T13:56:56.466Z,16.70
2018-05-13T13:59:24.168Z,15.13
2018-05-13T14:01:51.654Z,15.00
2018-05-13T14:04:19.168Z,14.23
2018-05-13T14:06:46.820Z,14.00
2018-05-13T14:09:14.434Z,12.90
2018-05-13T14:11:42.805Z,12.07
2018-05-13T14:14:10.238Z,11.77
2018-05-13T14:16:37.905Z,11.70
2018-05-13T14:19:05.666Z,11.03
2018-05-13T14:21:33.180Z,11.53
2018-05-13T14:24:00.883Z,10.47
2018-05-13T14:26:28.411Z,11.63
2018-05-13T14:28:56.068Z,11.43
2018-05-13T14:31:23.878Z,10.10
2018-05-13T14:33:51.386Z,10.40
2018-05-13T14:36:19.083Z,10.70
2018-05-13T14:38:46.586Z,9.90
2018-05-13T14:41:14.328Z,10.30
2018-05-13T14:43:41.778Z,9.90
2018-05-13T14:46:09.298Z,9.00
2018-05-13T14:48:36.796Z,9.27
2018-05-13T14:51:04.316Z,8.40
2018-05-13T14:53:31.822Z,10.10
2018-05-13T14:55:59.336Z,8.10
2018-05-13T14:58:26.854Z,8.20
2018-05-13T15:00:54.561Z,8.13
2018-05-13T15:03:22.067Z,9.03
2018-05-13T15:05:49.584Z,8.70
2018-05-13T15:08:17.209Z,9.43
2018-05-13T15:10:44.733Z,9.30
2018-05-13T15:13:12.297Z,8.87
2018-05-13T15:15:40.846Z,8.20
2018-05-13T15:18:08.615Z,8.13
2018-05-13T15:20:36.140Z,8.63
2018-05-13T15:23:03.832Z,7.23
2018-05-13T15:25:31.618Z,8.40
2018-05-13T15:27:59.330Z,8.07
2018-05-13T15:30:27.128Z,9.50
2018-05-13T15:32:54.883Z,8.17
2018-05-13T15:35:22.399Z,6.87
2018-05-13T15:37:50.056Z,6.70
2018-05-13T15:40:17.558Z,8.00
2018-05-13T15:42:45.163Z,6.50
2018-05-13T15:45:12.611Z,5.63
2018-05-13T15:47:40.217Z,6.50
2018-05-13T15:50:07.722Z,6.20
2018-05-13T15:52:35.255Z,6.40
2018-05-13T15:55:02.904Z,6.63
2018-05-13T15:57:30.311Z,5.67
2018-05-13T15:59:58.581Z,5.00
2018-05-13T16:02:26.878Z,5.40
2018-05-13T16:04:54.375Z,5.17
2018-05-13T16:07:21.915Z,4.50
2018-05-13T16:09:49.422Z,5.23
2018-05-13T16:12:17.090Z,5.00
2018-05-13T16:14:44.484Z,5.10
2018-05-13T16:17:11.998Z,4.70
2018-05-13T16:19:39.507Z,5.00
2018-05-13T16:22:07.033Z,4.83
2018-05-13T16:24:34.530Z,4.53
2018-05-13T16:27:02.049Z,5.83
2018-05-13T16:29:29.763Z,5.43
2018-05-13T16:31:57.272Z,4.53
2018-05-13T16:34:24.795Z,4.40
2018-05-13T16:36:52.304Z,5.03
2018-05-13T16:39:19.885Z,4.10
2018-05-13T16:41:47.662Z,5.13
2018-05-13T16:44:15.651Z,3.77
2018-05-13T16:46:43.728Z,3.47
2018-05-13T16:49:11.254Z,4.33
2018-05-13T16:51:39.018Z,4.70
2018-05-13T16:54:06.530Z,4.13
2018-05-13T16:56:34.234Z,3.60
2018-05-13T16:59:01.740Z,4.13
2018-05-13T17:01:29.459Z,5.10
2018-05-13T17:03:56.969Z,4.47
2018-05-13T17:06:24.679Z,3.70
2018-05-13T17:08:52.185Z,4.03
2018-05-13T17:11:19.874Z,3.53
2018-05-13T17:13:47.369Z,4.17
2018-05-13T17:16:14.884Z,3.67
2018-05-13T17:18:42.581Z,3.60
2018-05-13T17:21:10.189Z,3.77
2018-05-13T17:23:37.810Z,3.40
2018-05-13T17:26:05.237Z,4.13
2018-05-13T17:28:32.771Z,4.00
2018-05-13T17:31:00.263Z,4.10
2018-05-13T17:33:27.768Z,3.30
2018-05-13T17:35:56.034Z,3.67
2018-05-13T17:38:23.753Z,3.93
2018-05-13T17:40:51.531Z,3.33
2018-05-13T17:43:19.043Z,3.60
2018-05-13T17:45:46.742Z,3.67
2018-05-13T17:48:14.252Z,4.00
2018-05-13T17:50:41.972Z,3.53
2018-05-13T17:53:09.482Z,3.37
2018-05-13T17:55:37.191Z,3.30
2018-05-13T17:58:04.959Z,3.10
2018-05-13T18:00:32.467Z,4.10
2018-05-13T18:03:00.390Z,3.50
2018-05-13T18:05:27.870Z,4.20
2018-05-13T18:07:55.394Z,3.37
2018-05-13T18:10:22.894Z,3.47
2018-05-13T18:12:50.402Z,4.13
2018-05-13T18:15:18.089Z,3.40
2018-05-13T18:17:47.126Z,3.53
2018-05-13T18:20:14.834Z,3.40
2018-05-13T18:22:42.345Z,3.87
2018-05-13T18:25:10.026Z,3.50
2018-05-13T18:27:37.550Z,3.50
2018-05-13T18:30:05.076Z,3.00
2018-05-13T18:32:32.588Z,3.00
2018-05-13T18:35:00.095Z,3.80
2018-05-13T18:37:27.605Z,3.00
2018-05-13T18:39:55.419Z,3.27
2018-05-13T18:42:22.950Z,3.40
2018-05-13T18:44:50.629Z,3.40
2018-05-13T18:47:19.894Z,3.00
2018-05-13T18:49:47.398Z,3.77
2018-05-13T18:52:14.935Z,3.37
2018-05-13T18:54:42.599Z,2.70
2018-05-13T18:57:10.108Z,3.10
2018-05-13T18:59:38.227Z,3.20
2018-05-13T19:02:05.723Z,3.47
2018-05-13T19:04:34.564Z,3.07
2018-05-13T19:07:02.049Z,3.20
2018-05-13T19:09:29.588Z,3.77
2018-05-13T19:11:57.236Z,3.17
2018-05-13T19:14:24.742Z,3.57
2018-05-13T19:16:52.252Z,3.97
2018-05-13T19:19:19.926Z,5.10
2018-05-13T19:21:47.702Z,3.27
2018-05-13T19:24:15.199Z,4.50
2018-05-13T19:26:42.702Z,4.27
2018-05-13T19:29:10.676Z,3.87
2018-05-13T19:31:38.182Z,3.53
2018-05-13T19:34:05.679Z,3.80
2018-05-13T19:36:33.379Z,3.13
2018-05-13T19:39:02.426Z,3.50
2018-05-13T19:41:29.920Z,3.93
2018-05-13T19:43:57.494Z,3.53
2018-05-13T19:46:25.010Z,3.80
2018-05-13T19:48:52.951Z,3.40
2018-05-13T19:51:20.447Z,3.40
2018-05-13T19:53:47.983Z,3.20
2018-05-13T19:56:15.762Z,3.80
2018-05-13T19:58:43.270Z,3.40
2018-05-13T20:01:10.951Z,4.23
2018-05-13T20:03:39.202Z,3.20
2018-05-13T20:06:06.572Z,4.00
2018-05-13T20:08:34.083Z,4.03
2018-05-13T20:11:01.606Z,3.80
2018-05-13T20:13:29.733Z,4.00
2018-05-13T20:15:58.122Z,4.03
2018-05-13T20:18:25.636Z,4.30
2018-05-13T20:20:53.362Z,4.23
2018-05-13T20:23:25.908Z,4.40
2018-05-13T20:25:53.534Z,4.30
2018-05-13T20:28:21.265Z,4.20
2018-05-13T20:30:48.874Z,4.50
2018-05-13T20:33:16.419Z,3.90
2018-05-13T20:35:43.980Z,4.27
2018-05-13T20:38:11.485Z,5.07
2018-05-13T20:40:38.987Z,4.90
2018-05-13T20:43:06.494Z,5.90
2018-05-13T20:45:34.773Z,4.00
2018-05-13T20:48:02.381Z,4.73
2018-05-13T20:50:29.985Z,3.97
2018-05-13T20:52:57.394Z,4.77
2018-05-13T20:55:25.157Z,5.27
2018-05-13T20:57:52.725Z,4.63
2018-05-13T21:00:21.318Z,4.63
2018-05-13T21:02:49.065Z,4.77
2018-05-13T21:05:16.906Z,4.70
2018-05-13T21:07:44.595Z,5.10
2018-05-13T21:10:12.102Z,4.10
2018-05-13T21:12:39.612Z,4.50
2018-05-13T21:15:07.249Z,4.80
2018-05-13T21:17:34.749Z,4.40
2018-05-13T21:20:04.040Z,4.43
2018-05-13T21:22:31.790Z,4.10
2018-05-13T21:24:59.310Z,4.10
2018-05-13T21:27:27.006Z,5.03
2018-05-13T21:29:54.521Z,5.20
2018-05-13T21:32:22.031Z,4.47
2018-05-13T21:34:50.239Z,4.20
2018-05-13T21:37:17.755Z,4.23
2018-05-13T21:39:45.262Z,4.80
2018-05-13T21:42:12.977Z,4.70
2018-05-13T21:44:40.481Z,4.87
2018-05-13T21:47:08.013Z,5.10
2018-05-13T21:49:35.632Z,4.77
2018-05-13T21:52:03.139Z,4.30
2018-05-13T21:54:30.873Z,4.60
2018-05-13T21:56:58.346Z,4.33
2018-05-13T21:59:25.866Z,5.80
2018-05-13T22:01:53.514Z,4.37
2018-05-13T22:04:21.309Z,4.37
2018-05-13T22:06:49.074Z,4.47
2018-05-13T22:09:16.580Z,4.67
2018-05-13T22:11:44.094Z,3.90
2018-05-13T22:14:11.737Z,4.53
2018-05-13T22:16:39.226Z,4.67
2018-05-13T22:19:06.739Z,4.80
2018-05-13T22:21:34.437Z,4.90
2018-05-13T22:24:01.940Z,4.47
2018-05-13T22:26:29.618Z,4.03
2018-05-13T22:28:57.330Z,4.07
2018-05-13T22:31:24.845Z,5.40
2018-05-13T22:33:52.563Z,4.50
2018-05-13T22:36:20.078Z,4.47
2018-05-13T22:38:47.594Z,4.50
2018-05-13T22:41:15.341Z,4.80
2018-05-13T22:43:44.349Z,4.63
2018-05-13T22:46:12.034Z,4.50
2018-05-13T22:48:39.537Z,4.60
2018-05-13T22:51:07.042Z,4.50
2018-05-13T22:53:35.053Z,4.93
2018-05-13T22:56:02.822Z,4.70
2018-05-13T22:58:30.432Z,4.70
2018-05-13T23:00:58.046Z,4.33
2018-05-13T23:03:25.798Z,4.33
2018-05-13T23:05:53.570Z,4.73
2018-05-13T23:08:21.061Z,4.30
2018-05-13T23:10:49.402Z,5.17
2018-05-13T23:13:16.899Z,4.30
2018-05-13T23:15:44.551Z,4.37
2018-05-13T23:18:12.049Z,4.40
2018-05-13T23:20:39.836Z,4.70
2018-05-13T23:23:07.349Z,4.80
2018-05-13T23:25:35.028Z,5.37
2018-05-13T23:28:02.526Z,4.90
2018-05-13T23:30:30.093Z,4.60
2018-05-13T23:32:57.738Z,5.30
2018-05-13T23:35:25.502Z,4.70
2018-05-13T23:37:53.263Z,4.37
2018-05-13T23:40:21.022Z,5.10
2018-05-13T23:42:48.522Z,4.80
2018-05-13T23:45:16.242Z,5.10
2018-05-13T23:47:44.006Z,4.33
2018-05-13T23:50:11.773Z,5.20
2018-05-13T23:52:39.289Z,4.70
2018-05-13T23:55:06.968Z,4.90
2018-05-13T23:57:34.467Z,4.67
